createdAt,value
2018-08-01T00:00:53.652Z,22.70
2018-08-01T00:03:22.425Z,22.60
2018-08-01T00:08:19.966Z,22.40
2018-08-01T00:10:48.728Z,22.30
2018-08-01T00:13:17.557Z,22.20
2018-08-01T00:15:46.437Z,22.20
2018-08-01T00:18:15.284Z,22.20
2018-08-01T00:20:44.188Z,22.20
2018-08-01T00:23:13.592Z,22.10
2018-08-01T00:25:42.335Z,22.10
2018-08-01T00:28:11.176Z,22.10
2018-08-01T00:30:39.973Z,22.10
2018-08-01T00:33:09.596Z,22.00
2018-08-01T00:35:38.488Z,21.90
2018-08-01T00:38:07.387Z,21.90
2018-08-01T00:40:36.177Z,21.90
2018-08-01T00:43:05.009Z,21.90
2018-08-01T00:45:33.833Z,21.90
2018-08-01T00:48:02.783Z,22.00
2018-08-01T00:50:31.508Z,22.20
2018-08-01T00:53:00.316Z,22.40
2018-08-01T00:55:29.080Z,22.40
2018-08-01T00:57:58.127Z,22.30
2018-08-01T01:00:26.892Z,22.00
2018-08-01T01:02:55.674Z,21.90
2018-08-01T01:05:24.537Z,21.80
2018-08-01T01:07:53.509Z,21.70
2018-08-01T01:10:22.313Z,21.60
2018-08-01T01:12:51.140Z,21.50
2018-08-01T01:15:20.043Z,21.50
2018-08-01T01:17:48.944Z,21.40
2018-08-01T01:20:17.765Z,21.40
2018-08-01T01:22:46.541Z,21.40
2018-08-01T01:25:15.344Z,21.40
2018-08-01T01:27:44.141Z,21.70
2018-08-01T01:30:12.909Z,21.80
2018-08-01T01:32:41.753Z,21.70
2018-08-01T01:35:10.549Z,21.70
2018-08-01T01:37:39.766Z,21.60
2018-08-01T01:40:08.529Z,21.80
2018-08-01T01:42:37.318Z,22.00
2018-08-01T01:45:06.364Z,22.00
2018-08-01T01:47:35.168Z,22.10
2018-08-01T01:50:04.172Z,21.90
2018-08-01T01:52:45.478Z,21.80
2018-08-01T01:55:14.580Z,21.60
2018-08-01T02:00:12.062Z,21.30
2018-08-01T02:02:41.708Z,21.40
2018-08-01T02:05:10.617Z,21.60
2018-08-01T02:07:39.921Z,21.60
2018-08-01T02:10:14.921Z,21.70
2018-08-01T02:12:44.439Z,21.70
2018-08-01T02:15:13.684Z,21.50
2018-08-01T02:17:42.703Z,21.40
2018-08-01T02:20:11.609Z,21.30
2018-08-01T02:22:40.713Z,21.20
2018-08-01T02:25:16.260Z,21.20
2018-08-01T02:27:45.085Z,21.10
2018-08-01T02:30:13.841Z,21.10
2018-08-01T02:32:42.678Z,21.10
2018-08-01T02:35:11.583Z,21.30
2018-08-01T02:37:40.746Z,21.50
2018-08-01T02:40:10.009Z,21.50
2018-08-01T02:42:38.902Z,21.50
2018-08-01T02:45:08.118Z,21.40
2018-08-01T02:47:37.324Z,21.10
2018-08-01T02:50:06.997Z,21.30
2018-08-01T02:52:35.766Z,21.50
2018-08-01T02:55:05.061Z,21.70
2018-08-01T02:57:34.070Z,21.50
2018-08-01T03:00:03.480Z,21.50
2018-08-01T03:02:32.287Z,21.70
2018-08-01T03:05:01.116Z,21.70
2018-08-01T03:07:29.892Z,21.80
2018-08-01T03:09:58.742Z,21.80
2018-08-01T03:12:27.647Z,21.80
2018-08-01T03:14:56.550Z,21.90
2018-08-01T03:17:25.350Z,21.90
2018-08-01T03:19:54.152Z,21.90
2018-08-01T03:22:22.934Z,22.00
2018-08-01T03:24:51.734Z,21.90
2018-08-01T03:27:20.498Z,21.80
2018-08-01T03:29:49.303Z,21.60
2018-08-01T03:32:18.108Z,21.50
2018-08-01T03:34:46.895Z,21.50
2018-08-01T03:37:15.701Z,21.40
2018-08-01T03:39:44.509Z,21.30
2018-08-01T03:42:13.301Z,21.20
2018-08-01T03:44:42.172Z,21.30
2018-08-01T03:47:11.137Z,21.20
2018-08-01T03:49:39.935Z,21.20
2018-08-01T03:52:08.819Z,21.20
2018-08-01T03:54:37.596Z,21.30
2018-08-01T03:57:06.621Z,21.50
2018-08-01T03:59:35.733Z,21.80
2018-08-01T04:02:04.736Z,22.10
2018-08-01T04:04:33.632Z,22.20
2018-08-01T04:07:02.645Z,22.20
2018-08-01T04:09:31.544Z,22.10
2018-08-01T04:12:00.352Z,22.00
2018-08-01T04:14:29.113Z,21.90
2018-08-01T04:16:57.951Z,22.10
2018-08-01T04:19:26.756Z,22.40
2018-08-01T04:21:55.529Z,22.60
2018-08-01T04:24:24.690Z,22.90
2018-08-01T04:26:53.525Z,23.10
2018-08-01T04:29:22.370Z,23.00
2018-08-01T04:31:51.178Z,22.90
2018-08-01T04:34:20.018Z,22.90
2018-08-01T04:36:48.796Z,23.20
2018-08-01T04:39:17.672Z,23.50
2018-08-01T04:41:46.572Z,23.80
2018-08-01T04:44:15.378Z,24.00
2018-08-01T04:46:44.176Z,24.10
2018-08-01T04:49:13.284Z,24.30
2018-08-01T04:51:42.060Z,24.60
2018-08-01T04:54:10.896Z,24.30
2018-08-01T04:56:39.697Z,24.50
2018-08-01T04:59:08.491Z,24.50
2018-08-01T05:01:37.365Z,24.80
2018-08-01T05:04:06.256Z,25.10
2018-08-01T05:06:35.100Z,25.10
2018-08-01T05:09:06.707Z,24.90
2018-08-01T05:11:35.568Z,25.00
2018-08-01T05:14:04.468Z,25.20
2018-08-01T05:16:33.273Z,25.10
2018-08-01T05:19:02.060Z,25.10
2018-08-01T05:21:30.865Z,25.10
2018-08-01T05:23:59.685Z,25.00
2018-08-01T05:26:28.594Z,24.90
2018-08-01T05:28:57.385Z,24.90
2018-08-01T05:31:26.584Z,24.90
2018-08-01T05:33:55.451Z,24.80
2018-08-01T05:36:24.300Z,24.80
2018-08-01T05:38:53.316Z,24.70
2018-08-01T05:41:22.112Z,24.70
2018-08-01T05:43:51.004Z,24.90
2018-08-01T05:46:20.099Z,25.00
2018-08-01T05:48:48.916Z,25.30
2018-08-01T05:51:17.676Z,25.30
2018-08-01T05:53:46.711Z,25.50
2018-08-01T05:56:15.468Z,25.50
2018-08-01T05:58:44.260Z,25.60
2018-08-01T06:01:13.149Z,25.70
2018-08-01T06:03:42.234Z,25.90
2018-08-01T06:06:11.296Z,26.20
2018-08-01T06:08:40.132Z,26.50
2018-08-01T06:11:08.944Z,26.90
2018-08-01T06:13:37.738Z,26.90
2018-08-01T06:16:06.544Z,26.80
2018-08-01T06:18:35.307Z,27.00
2018-08-01T06:21:04.158Z,27.30
2018-08-01T06:23:32.920Z,27.70
2018-08-01T06:26:01.762Z,28.00
2018-08-01T06:28:30.527Z,28.30
2018-08-01T06:30:59.471Z,28.50
2018-08-01T06:33:28.244Z,28.70
2018-08-01T06:35:57.056Z,28.90
2018-08-01T06:38:26.007Z,29.00
2018-08-01T06:40:54.725Z,29.10
2018-08-01T06:43:23.564Z,29.10
2018-08-01T06:45:52.560Z,28.90
2018-08-01T06:48:21.346Z,28.80
2018-08-01T06:50:50.164Z,28.90
2018-08-01T06:53:19.078Z,29.10
2018-08-01T06:55:47.844Z,29.30
2018-08-01T06:58:16.618Z,29.40
2018-08-01T07:00:45.478Z,29.40
2018-08-01T07:03:14.483Z,29.60
2018-08-01T07:05:43.845Z,29.70
2018-08-01T07:08:13.880Z,29.80
2018-08-01T07:10:42.648Z,29.90
2018-08-01T07:13:11.528Z,30.10
2018-08-01T07:15:40.332Z,30.20
2018-08-01T07:18:09.086Z,30.40
2018-08-01T07:20:37.850Z,30.60
2018-08-01T07:23:06.835Z,30.60
2018-08-01T07:28:04.209Z,30.90
2018-08-01T07:30:33.349Z,31.10
2018-08-01T07:33:02.141Z,31.20
2018-08-01T07:35:30.900Z,31.10
2018-08-01T07:37:59.737Z,31.10
2018-08-01T07:40:28.761Z,31.10
2018-08-01T07:42:57.614Z,31.10
2018-08-01T07:45:26.461Z,31.30
2018-08-01T07:47:55.220Z,31.40
2018-08-01T07:50:24.000Z,31.50
2018-08-01T07:52:53.061Z,31.40
2018-08-01T07:55:21.875Z,31.00
2018-08-01T07:57:50.633Z,30.80
2018-08-01T08:02:48.121Z,30.20
2018-08-01T08:05:16.876Z,30.30
2018-08-01T08:07:45.972Z,30.40
2018-08-01T08:10:15.801Z,30.50
2018-08-01T08:12:45.316Z,30.60
2018-08-01T08:15:14.231Z,30.60
2018-08-01T08:17:43.020Z,30.50
2018-08-01T08:20:11.924Z,30.40
2018-08-01T08:22:40.829Z,30.60
2018-08-01T08:25:09.634Z,30.90
2018-08-01T08:27:38.755Z,31.40
2018-08-01T08:30:07.596Z,31.70
2018-08-01T08:32:36.338Z,31.70
2018-08-01T08:35:05.140Z,31.50
2018-08-01T08:37:33.997Z,31.40
2018-08-01T08:40:02.901Z,31.40
2018-08-01T08:42:31.744Z,31.40
2018-08-01T08:45:00.585Z,31.50
2018-08-01T08:47:29.662Z,31.50
2018-08-01T08:49:58.566Z,31.40
2018-08-01T08:52:27.357Z,31.50
2018-08-01T08:57:24.756Z,31.40
2018-08-01T08:59:53.557Z,31.70
2018-08-01T09:02:22.341Z,31.90
2018-08-01T09:04:51.166Z,32.20
2018-08-01T09:07:19.937Z,32.20
2018-08-01T09:09:48.699Z,32.10
2018-08-01T09:12:17.500Z,31.80
2018-08-01T09:14:46.349Z,32.00
2018-08-01T09:17:15.417Z,32.20
2018-08-01T09:19:44.235Z,32.30
2018-08-01T09:22:13.261Z,32.30
2018-08-01T09:24:42.051Z,32.20
2018-08-01T09:27:10.980Z,32.20
2018-08-01T09:29:39.893Z,32.20
2018-08-01T09:32:08.792Z,32.30
2018-08-01T09:34:37.605Z,32.40
2018-08-01T09:37:06.393Z,32.50
2018-08-01T09:39:35.175Z,32.70
2018-08-01T09:44:32.592Z,32.70
2018-08-01T09:47:01.429Z,32.60
2018-08-01T09:49:30.230Z,32.60
2018-08-01T09:51:58.989Z,32.50
2018-08-01T09:54:28.274Z,32.60
2018-08-01T09:56:56.639Z,32.50
2018-08-01T09:59:25.400Z,32.50
2018-08-01T10:02:09.938Z,32.50
2018-08-01T10:04:38.780Z,32.70
2018-08-01T10:07:07.672Z,33.00
2018-08-01T10:09:36.480Z,33.30
2018-08-01T10:12:05.390Z,33.30
2018-08-01T10:14:34.396Z,33.70
2018-08-01T10:17:03.297Z,33.90
2018-08-01T10:19:32.195Z,33.40
2018-08-01T10:22:10.303Z,33.30
2018-08-01T10:27:09.064Z,32.90
2018-08-01T10:29:37.902Z,32.70
2018-08-01T10:32:08.108Z,32.90
2018-08-01T10:34:37.593Z,33.30
2018-08-01T10:37:06.382Z,33.10
2018-08-01T10:39:35.178Z,33.30
2018-08-01T10:42:04.300Z,33.60
2018-08-01T10:44:34.132Z,33.60
2018-08-01T10:47:03.749Z,33.90
2018-08-01T10:49:33.072Z,34.10
2018-08-01T10:52:01.864Z,34.40
2018-08-01T10:54:31.076Z,34.50
2018-08-01T10:57:00.385Z,34.30
2018-08-01T10:59:29.733Z,34.20
2018-08-01T11:01:58.706Z,34.00
2018-08-01T11:04:27.816Z,34.10
2018-08-01T11:06:56.620Z,34.00
2018-08-01T11:09:25.553Z,33.40
2018-08-01T11:11:54.430Z,33.40
2018-08-01T11:14:23.237Z,33.70
2018-08-01T11:16:52.601Z,34.30
2018-08-01T11:19:21.369Z,34.80
2018-08-01T11:21:50.201Z,35.10
2018-08-01T11:24:18.962Z,35.10
2018-08-01T11:26:47.773Z,35.00
2018-08-01T11:29:16.703Z,35.00
2018-08-01T11:31:45.548Z,35.40
2018-08-01T11:34:14.451Z,34.80
2018-08-01T11:36:43.264Z,34.60
2018-08-01T11:39:13.035Z,34.40
2018-08-01T11:41:41.803Z,34.70
2018-08-01T11:44:11.049Z,34.90
2018-08-01T11:46:39.892Z,35.00
2018-08-01T11:49:08.948Z,35.10
2018-08-01T11:51:37.708Z,34.60
2018-08-01T11:54:07.040Z,34.60
2018-08-01T11:56:35.853Z,35.00
2018-08-01T11:59:04.636Z,35.10
2018-08-01T12:01:33.516Z,35.20
2018-08-01T12:04:02.292Z,35.20
2018-08-01T12:06:31.432Z,35.00
2018-08-01T12:09:00.233Z,34.80
2018-08-01T12:11:29.040Z,34.70
2018-08-01T12:13:57.864Z,34.70
2018-08-01T12:16:26.728Z,34.60
2018-08-01T12:18:55.536Z,34.70
2018-08-01T12:21:24.336Z,34.00
2018-08-01T12:23:53.240Z,33.40
2018-08-01T12:26:22.050Z,33.00
2018-08-01T12:28:50.905Z,32.80
2018-08-01T12:31:20.668Z,32.50
2018-08-01T12:33:49.472Z,32.40
2018-08-01T12:36:18.276Z,32.20
2018-08-01T12:38:47.069Z,32.10
2018-08-01T12:41:16.171Z,32.20
2018-08-01T12:43:45.076Z,32.20
2018-08-01T12:46:13.885Z,32.10
2018-08-01T12:48:42.677Z,32.10
2018-08-01T12:51:11.488Z,32.10
2018-08-01T12:53:40.284Z,32.10
2018-08-01T12:56:09.066Z,32.40
2018-08-01T12:58:37.997Z,32.70
2018-08-01T13:01:07.708Z,33.10
2018-08-01T13:03:36.512Z,33.50
2018-08-01T13:06:05.475Z,33.70
2018-08-01T13:08:34.628Z,33.80
2018-08-01T13:11:03.400Z,33.70
2018-08-01T13:13:32.164Z,33.40
2018-08-01T13:16:01.049Z,33.40
2018-08-01T13:18:29.832Z,33.40
2018-08-01T13:20:58.744Z,33.30
2018-08-01T13:23:27.612Z,33.40
2018-08-01T13:25:56.444Z,33.70
2018-08-01T13:28:25.248Z,33.90
2018-08-01T13:30:54.019Z,34.10
2018-08-01T13:33:22.847Z,33.70
2018-08-01T13:35:51.652Z,33.40
2018-08-01T13:38:20.451Z,33.40
2018-08-01T13:40:49.268Z,33.40
2018-08-01T13:43:18.033Z,33.50
2018-08-01T13:45:47.265Z,33.50
2018-08-01T13:48:16.158Z,33.50
2018-08-01T13:50:44.925Z,33.70
2018-08-01T13:53:13.823Z,33.90
2018-08-01T13:55:42.668Z,33.80
2018-08-01T13:58:11.579Z,33.80
2018-08-01T14:00:40.421Z,33.80
2018-08-01T14:03:09.280Z,34.10
2018-08-01T14:05:38.128Z,34.20
2018-08-01T14:08:06.981Z,34.10
2018-08-01T14:10:35.748Z,34.10
2018-08-01T14:13:04.584Z,34.10
2018-08-01T14:15:33.353Z,34.10
2018-08-01T14:18:02.392Z,34.30
2018-08-01T14:20:31.206Z,34.50
2018-08-01T14:22:59.992Z,34.20
2018-08-01T14:25:29.003Z,34.10
2018-08-01T14:27:57.800Z,33.70
2018-08-01T14:30:26.571Z,33.40
2018-08-01T14:32:55.369Z,33.50
2018-08-01T14:35:24.948Z,33.70
2018-08-01T14:37:53.702Z,33.70
2018-08-01T14:40:22.472Z,33.50
2018-08-01T14:42:51.283Z,33.50
2018-08-01T14:45:20.124Z,33.90
2018-08-01T14:47:48.919Z,34.50
2018-08-01T14:50:17.838Z,35.10
2018-08-01T14:52:46.633Z,35.40
2018-08-01T14:55:15.489Z,35.00
2018-08-01T14:57:44.317Z,35.20
2018-08-01T15:00:13.090Z,35.30
2018-08-01T15:02:41.941Z,35.20
2018-08-01T15:05:11.973Z,35.10
2018-08-01T15:07:40.877Z,35.00
2018-08-01T15:10:09.639Z,35.10
2018-08-01T15:12:38.685Z,35.40
2018-08-01T15:15:08.444Z,35.50
2018-08-01T15:17:37.362Z,35.60
2018-08-01T15:20:06.133Z,35.10
2018-08-01T15:22:34.926Z,35.30
2018-08-01T15:25:04.189Z,35.50
2018-08-01T15:27:33.020Z,35.40
2018-08-01T15:30:02.027Z,35.40
2018-08-01T15:32:30.873Z,35.40
2018-08-01T15:34:59.837Z,35.10
2018-08-01T15:37:28.636Z,34.60
2018-08-01T15:39:57.641Z,34.70
2018-08-01T15:42:26.506Z,35.40
2018-08-01T15:44:55.344Z,36.70
2018-08-01T15:47:24.145Z,36.80
2018-08-01T15:49:52.946Z,36.60
2018-08-01T15:52:22.058Z,36.00
2018-08-01T15:54:50.956Z,33.90
2018-08-01T15:57:19.705Z,33.10
2018-08-01T15:59:48.559Z,32.90
2018-08-01T16:02:17.355Z,33.10
2018-08-01T16:07:14.704Z,33.20
2018-08-01T16:09:43.552Z,33.10
2018-08-01T16:12:12.362Z,33.10
2018-08-01T16:14:41.467Z,33.50
2018-08-01T16:17:10.237Z,33.60
2018-08-01T16:19:39.068Z,33.80
2018-08-01T16:22:08.821Z,33.70
2018-08-01T16:24:37.593Z,33.70
2018-08-01T16:27:06.388Z,33.80
2018-08-01T16:29:35.302Z,33.10
2018-08-01T16:32:04.158Z,32.80
2018-08-01T16:34:32.872Z,32.60
2018-08-01T16:37:01.873Z,32.50
2018-08-01T16:39:30.889Z,32.40
2018-08-01T16:41:59.708Z,32.70
2018-08-01T16:44:28.468Z,32.90
2018-08-01T16:46:57.312Z,32.90
2018-08-01T16:51:54.741Z,33.20
2018-08-01T16:54:23.618Z,33.10
2018-08-01T16:56:52.422Z,33.10
2018-08-01T16:59:21.627Z,32.60
2018-08-01T17:01:50.386Z,32.10
2018-08-01T17:04:19.228Z,32.00
2018-08-01T17:06:48.016Z,31.70
2018-08-01T17:09:16.825Z,31.50
2018-08-01T17:11:45.634Z,31.20
2018-08-01T17:14:14.528Z,31.00
2018-08-01T17:19:11.834Z,30.70
2018-08-01T17:21:40.600Z,30.60
2018-08-01T17:24:09.405Z,30.40
2018-08-01T17:26:38.147Z,30.10
2018-08-01T17:29:06.998Z,29.90
2018-08-01T17:31:35.832Z,29.90
2018-08-01T17:34:04.604Z,29.80
2018-08-01T17:36:33.420Z,29.80
2018-08-01T17:39:02.213Z,29.70
2018-08-01T17:41:31.109Z,29.80
2018-08-01T17:43:59.958Z,29.70
2018-08-01T17:46:28.726Z,29.70
2018-08-01T17:48:57.480Z,29.50
2018-08-01T17:51:26.585Z,29.50
2018-08-01T17:53:55.346Z,29.40
2018-08-01T17:56:24.104Z,29.30
2018-08-01T17:58:53.335Z,29.30
2018-08-01T18:01:22.040Z,29.30
2018-08-01T18:03:51.339Z,29.20
2018-08-01T18:06:20.389Z,29.00
2018-08-01T18:08:49.168Z,28.90
2018-08-01T18:11:17.993Z,28.90
2018-08-01T18:13:46.816Z,28.90
2018-08-01T18:16:15.568Z,28.90
2018-08-01T18:18:44.388Z,28.80
2018-08-01T18:21:13.498Z,28.60
2018-08-01T18:23:42.296Z,28.50
2018-08-01T18:26:11.064Z,28.40
2018-08-01T18:28:39.853Z,28.30
2018-08-01T18:31:08.649Z,28.30
2018-08-01T18:33:37.710Z,28.20
2018-08-01T18:36:07.013Z,28.00
2018-08-01T18:38:36.129Z,27.90
2018-08-01T18:41:05.499Z,27.90
2018-08-01T18:43:34.345Z,28.00
2018-08-01T18:46:03.140Z,28.00
2018-08-01T18:48:31.953Z,27.90
2018-08-01T18:51:00.750Z,27.80
2018-08-01T18:53:29.660Z,27.70
2018-08-01T18:55:58.424Z,27.70
2018-08-01T18:58:27.200Z,27.70
2018-08-01T19:00:56.156Z,27.70
2018-08-01T19:05:54.010Z,27.50
2018-08-01T19:08:23.286Z,27.50
2018-08-01T19:10:52.093Z,27.50
2018-08-01T19:13:20.956Z,27.50
2018-08-01T19:15:49.987Z,27.40
2018-08-01T19:18:18.732Z,27.40
2018-08-01T19:20:47.505Z,27.40
2018-08-01T19:23:16.270Z,27.30
2018-08-01T19:25:45.098Z,27.30
2018-08-01T19:28:14.201Z,27.20
2018-08-01T19:30:43.000Z,27.20
2018-08-01T19:33:11.764Z,27.20
2018-08-01T19:35:40.814Z,27.20
2018-08-01T19:38:09.822Z,27.20
2018-08-01T19:40:38.613Z,27.20
2018-08-01T19:43:07.729Z,27.20
2018-08-01T19:45:36.824Z,27.10
2018-08-01T19:48:06.039Z,27.00
2018-08-01T19:50:35.007Z,26.90
2018-08-01T19:58:00.872Z,27.00
2018-08-01T20:00:29.809Z,27.00
2018-08-01T20:02:58.436Z,26.80
2018-08-01T20:05:27.366Z,26.70
2018-08-01T20:07:56.244Z,26.70
2018-08-01T20:10:25.105Z,26.70
2018-08-01T20:12:53.856Z,26.60
2018-08-01T20:15:23.065Z,26.60
2018-08-01T20:17:51.812Z,26.60
2018-08-01T20:20:20.572Z,26.50
2018-08-01T20:22:49.460Z,26.50
2018-08-01T20:25:18.249Z,26.50
2018-08-01T20:27:47.044Z,26.50
2018-08-01T20:30:15.830Z,26.60
2018-08-01T20:32:44.708Z,26.70
2018-08-01T20:35:13.568Z,26.50
2018-08-01T20:37:42.636Z,26.50
2018-08-01T20:40:11.385Z,26.40
2018-08-01T20:42:40.477Z,26.40
2018-08-01T20:45:09.295Z,26.40
2018-08-01T20:47:38.121Z,26.40
2018-08-01T20:50:06.889Z,26.30
2018-08-01T20:52:35.699Z,26.40
2018-08-01T20:55:04.593Z,26.20
2018-08-01T21:00:02.504Z,26.20
2018-08-01T21:02:31.309Z,26.10
2018-08-01T21:05:00.072Z,26.10
2018-08-01T21:07:28.910Z,26.00
2018-08-01T21:09:58.026Z,25.80
2018-08-01T21:12:26.824Z,25.90
2018-08-01T21:14:55.622Z,25.80
2018-08-01T21:19:53.234Z,25.80
2018-08-01T21:22:22.012Z,25.80
2018-08-01T21:27:19.301Z,25.50
2018-08-01T21:29:48.118Z,25.50
2018-08-01T21:32:16.884Z,25.50
2018-08-01T21:34:45.737Z,25.40
2018-08-01T21:37:14.532Z,25.40
2018-08-01T21:39:43.436Z,25.30
2018-08-01T21:42:12.234Z,25.30
2018-08-01T21:44:41.399Z,25.30
2018-08-01T21:47:10.137Z,25.30
2018-08-01T21:49:38.925Z,25.30
2018-08-01T21:52:07.744Z,25.30
2018-08-01T21:57:05.100Z,25.20
2018-08-01T21:59:33.896Z,25.20
2018-08-01T22:02:02.696Z,25.10
2018-08-01T22:04:31.529Z,25.10
2018-08-01T22:07:00.332Z,25.00
2018-08-01T22:09:29.353Z,25.00
2018-08-01T22:12:02.397Z,25.00
2018-08-01T22:14:31.366Z,25.10
2018-08-01T22:17:00.271Z,24.90
2018-08-01T22:19:29.274Z,25.00
2018-08-01T22:21:59.157Z,25.00
2018-08-01T22:24:28.096Z,25.00
2018-08-01T22:26:56.860Z,24.90
2018-08-01T22:29:25.718Z,24.90
2018-08-01T22:31:54.713Z,24.90
2018-08-01T22:34:23.570Z,25.00
2018-08-01T22:36:52.730Z,24.90
2018-08-01T22:39:22.145Z,24.80
2018-08-01T22:41:50.941Z,24.70
2018-08-01T22:44:19.944Z,24.60
2018-08-01T22:46:48.754Z,24.50
2018-08-01T22:49:17.561Z,24.50
2018-08-01T22:51:46.357Z,24.50
2018-08-01T22:54:15.165Z,24.30
2018-08-01T22:56:43.948Z,24.40
2018-08-01T22:59:12.848Z,24.30
2018-08-01T23:01:41.767Z,24.20
2018-08-01T23:04:10.657Z,24.20
2018-08-01T23:06:39.570Z,24.20
2018-08-01T23:09:09.808Z,24.10
2018-08-01T23:11:38.909Z,24.10
2018-08-01T23:14:07.949Z,24.00
2018-08-01T23:16:36.724Z,24.00
2018-08-01T23:19:05.512Z,24.00
2018-08-01T23:21:34.416Z,24.00
2018-08-01T23:24:03.216Z,24.00
2018-08-01T23:26:32.121Z,23.90
2018-08-01T23:29:01.001Z,23.90
2018-08-01T23:31:29.809Z,23.90
2018-08-01T23:33:58.608Z,23.90
2018-08-01T23:36:27.428Z,23.80
2018-08-01T23:38:56.256Z,23.70
2018-08-01T23:41:25.022Z,23.70
2018-08-01T23:43:53.924Z,23.70
2018-08-01T23:46:22.976Z,23.70
2018-08-01T23:48:51.845Z,23.70
2018-08-01T23:51:20.645Z,23.70
2018-08-01T23:53:49.458Z,23.90
2018-08-01T23:56:18.432Z,23.70
2018-08-01T23:58:47.249Z,23.60
